createdAt,value
2019-01-20T00:01:47.334Z,52.50
2019-01-20T00:04:28.380Z,53.60
2019-01-20T00:07:04.686Z,55.60
2019-01-20T00:09:44.087Z,52.20
2019-01-20T00:12:23.408Z,53.50
2019-01-20T00:15:11.296Z,57.00
2019-01-20T00:17:48.570Z,57.50
2019-01-20T00:20:26.773Z,54.90
2019-01-20T00:23:12.339Z,56.00
2019-01-20T00:25:59.257Z,55.80
2019-01-20T00:28:34.032Z,56.80
2019-01-20T00:31:10.378Z,58.30
2019-01-20T00:33:51.357Z,56.90
2019-01-20T00:36:28.230Z,57.50
2019-01-20T00:39:09.709Z,58.80
2019-01-20T00:41:45.736Z,58.80
2019-01-20T00:44:21.217Z,57.10
2019-01-20T00:46:56.599Z,53.50
2019-01-20T00:49:32.429Z,53.90
2019-01-20T00:52:11.188Z,55.60
2019-01-20T00:54:50.068Z,55.40
2019-01-20T00:57:30.786Z,55.30
2019-01-20T01:00:11.688Z,53.90
2019-01-20T01:02:53.068Z,52.10
2019-01-20T01:05:30.668Z,52.60
2019-01-20T01:08:10.978Z,52.30
2019-01-20T01:10:47.714Z,53.00
2019-01-20T01:18:26.165Z,56.20
2019-01-20T01:21:08.799Z,55.80
2019-01-20T01:23:46.025Z,55.40
2019-01-20T01:26:21.304Z,54.90
2019-01-20T01:28:57.878Z,56.60
2019-01-20T01:31:32.719Z,55.00
2019-01-20T01:34:09.520Z,55.20
2019-01-20T01:36:49.784Z,54.60
2019-01-20T01:39:29.328Z,55.10
2019-01-20T01:42:05.428Z,53.80
2019-01-20T01:44:52.395Z,51.50
2019-01-20T01:47:27.330Z,51.40
2019-01-20T01:50:03.961Z,52.90
2019-01-20T01:52:41.367Z,52.60
2019-01-20T01:55:17.184Z,52.90
2019-01-20T01:57:55.350Z,52.70
2019-01-20T02:00:30.677Z,54.00
2019-01-20T02:06:07.562Z,53.90
2019-01-20T02:08:43.569Z,53.60
2019-01-20T02:11:20.279Z,52.30
2019-01-20T02:14:03.214Z,54.00
2019-01-20T02:16:40.510Z,53.60
2019-01-20T02:19:17.642Z,53.90
2019-01-20T02:22:03.752Z,54.60
2019-01-20T02:24:39.574Z,54.40
2019-01-20T02:27:16.226Z,54.40
2019-01-20T02:29:51.249Z,54.90
2019-01-20T02:32:26.282Z,55.30
2019-01-20T02:35:03.273Z,56.20
2019-01-20T02:37:38.710Z,58.30
2019-01-20T02:40:15.031Z,57.60
2019-01-20T02:42:52.125Z,57.30
2019-01-20T02:45:30.782Z,55.90
2019-01-20T02:48:06.129Z,55.70
2019-01-20T02:50:51.860Z,54.70
2019-01-20T02:53:27.338Z,53.60
2019-01-20T02:56:03.935Z,52.20
2019-01-20T02:58:44.620Z,51.80
2019-01-20T03:01:31.620Z,52.60
2019-01-20T03:04:13.852Z,52.70
2019-01-20T03:06:49.398Z,53.90
2019-01-20T03:09:24.772Z,55.60
2019-01-20T03:12:04.300Z,53.40
2019-01-20T03:14:39.878Z,52.70
2019-01-20T03:17:17.172Z,52.50
2019-01-20T03:19:53.823Z,52.90
2019-01-20T03:22:28.836Z,53.80
2019-01-20T03:28:00.397Z,49.40
2019-01-20T03:30:37.588Z,50.00
2019-01-20T03:33:13.202Z,49.30
2019-01-20T03:35:51.288Z,50.40
2019-01-20T03:38:25.995Z,49.90
2019-01-20T03:41:03.861Z,51.30
2019-01-20T03:43:39.067Z,51.20
2019-01-20T03:46:14.130Z,51.20
2019-01-20T03:48:49.561Z,51.40
2019-01-20T03:51:25.025Z,51.90
2019-01-20T03:54:01.171Z,52.00
2019-01-20T03:56:38.445Z,53.80
2019-01-20T03:59:19.088Z,54.80
2019-01-20T04:01:54.571Z,55.10
2019-01-20T04:04:31.051Z,53.70
2019-01-20T04:07:09.585Z,51.40
2019-01-20T04:09:44.662Z,49.70
2019-01-20T04:12:20.711Z,49.50
2019-01-20T04:14:56.401Z,49.80
2019-01-20T04:17:32.798Z,47.80
2019-01-20T04:20:14.337Z,48.80
2019-01-20T04:22:50.900Z,46.30
2019-01-20T04:25:29.122Z,46.80
2019-01-20T04:28:04.504Z,46.30
2019-01-20T04:30:40.622Z,45.80
2019-01-20T04:33:20.163Z,46.50
2019-01-20T04:35:57.425Z,46.40
2019-01-20T04:38:37.135Z,46.50
2019-01-20T04:41:18.158Z,46.00
2019-01-20T04:44:02.784Z,47.40
2019-01-20T04:46:40.670Z,47.40
2019-01-20T04:49:19.356Z,46.90
2019-01-20T04:51:55.801Z,46.80
2019-01-20T04:54:32.259Z,43.80
2019-01-20T04:57:08.461Z,44.60
2019-01-20T04:59:44.296Z,45.60
2019-01-20T05:02:20.576Z,46.00
2019-01-20T05:04:57.942Z,44.30
2019-01-20T05:07:36.688Z,44.50
2019-01-20T05:10:15.259Z,44.70
2019-01-20T05:12:51.008Z,45.00
2019-01-20T05:15:26.774Z,45.30
2019-01-20T05:18:03.355Z,43.10
2019-01-20T05:20:44.047Z,43.10
2019-01-20T05:23:19.624Z,43.90
2019-01-20T05:25:59.404Z,43.10
2019-01-20T05:28:34.019Z,42.70
2019-01-20T05:31:14.773Z,43.10
2019-01-20T05:33:50.318Z,43.80
2019-01-20T05:36:25.308Z,45.20
2019-01-20T05:39:04.234Z,44.00
2019-01-20T05:41:39.815Z,43.20
2019-01-20T05:44:15.109Z,44.00
2019-01-20T05:46:52.699Z,44.20
2019-01-20T05:49:28.026Z,43.70
2019-01-20T05:52:07.223Z,42.80
2019-01-20T05:54:44.084Z,42.10
2019-01-20T05:57:19.674Z,43.50
2019-01-20T05:59:59.134Z,42.20
2019-01-20T06:02:35.019Z,43.70
2019-01-20T06:05:11.384Z,44.10
2019-01-20T06:07:48.736Z,44.40
2019-01-20T06:10:24.812Z,45.20
2019-01-20T06:13:02.075Z,45.50
2019-01-20T06:15:49.996Z,46.20
2019-01-20T06:18:35.010Z,46.70
2019-01-20T06:21:12.542Z,46.80
2019-01-20T06:23:45.512Z,47.10
2019-01-20T06:26:20.972Z,48.10
2019-01-20T06:28:57.094Z,48.90
2019-01-20T06:31:32.309Z,49.80
2019-01-20T06:34:08.978Z,50.00
2019-01-20T06:36:45.965Z,49.50
2019-01-20T06:39:21.520Z,50.50
2019-01-20T06:42:00.903Z,52.10
2019-01-20T06:44:35.620Z,51.60
2019-01-20T06:47:16.718Z,51.80
2019-01-20T06:49:51.835Z,51.90
2019-01-20T06:52:28.094Z,52.00
2019-01-20T06:55:05.316Z,52.30
2019-01-20T06:57:45.817Z,53.30
2019-01-20T07:00:27.150Z,53.30
2019-01-20T07:03:02.787Z,53.70
2019-01-20T07:05:35.526Z,54.00
2019-01-20T07:08:13.843Z,53.90
2019-01-20T07:10:48.846Z,53.00
2019-01-20T07:13:23.702Z,53.00
2019-01-20T07:15:58.737Z,53.30
2019-01-20T07:18:34.716Z,52.20
2019-01-20T07:21:11.912Z,51.70
2019-01-20T07:23:46.531Z,52.10
2019-01-20T07:26:21.601Z,52.20
2019-01-20T07:28:56.372Z,51.40
2019-01-20T07:31:32.223Z,52.40
2019-01-20T07:34:09.377Z,51.50
2019-01-20T07:36:44.622Z,51.20
2019-01-20T07:39:20.863Z,50.60
2019-01-20T07:41:55.613Z,52.30
2019-01-20T07:44:31.442Z,53.20
2019-01-20T07:47:06.779Z,54.40
2019-01-20T07:49:39.644Z,55.30
2019-01-20T07:52:14.643Z,53.60
2019-01-20T07:54:48.045Z,53.90
2019-01-20T07:57:23.777Z,53.70
2019-01-20T07:59:59.300Z,53.50
2019-01-20T08:02:33.993Z,52.90
2019-01-20T08:05:08.078Z,51.50
2019-01-20T08:07:43.529Z,49.30
2019-01-20T08:10:20.103Z,49.30
2019-01-20T08:12:55.130Z,47.90
2019-01-20T08:15:30.308Z,47.40
2019-01-20T08:18:09.636Z,45.90
2019-01-20T08:20:42.753Z,46.00
2019-01-20T08:23:17.804Z,45.60
2019-01-20T08:25:53.434Z,45.90
2019-01-20T08:28:28.574Z,43.30
2019-01-20T08:31:04.169Z,43.50
2019-01-20T08:33:40.916Z,40.90
2019-01-20T08:36:17.174Z,41.10
2019-01-20T08:38:52.708Z,40.90
2019-01-20T08:41:28.046Z,41.30
2019-01-20T08:44:02.995Z,40.40
2019-01-20T08:46:44.876Z,40.60
2019-01-20T08:49:20.274Z,38.90
2019-01-20T08:51:58.080Z,40.20
2019-01-20T08:54:34.317Z,39.90
2019-01-20T08:57:09.975Z,39.80
2019-01-20T08:59:45.617Z,41.20
2019-01-20T09:02:23.472Z,41.10
2019-01-20T09:04:58.967Z,42.90
2019-01-20T09:07:33.925Z,41.50
2019-01-20T09:10:18.158Z,42.70
2019-01-20T09:13:01.193Z,41.90
2019-01-20T09:27:14.823Z,42.80
2019-01-20T09:30:02.594Z,41.30
2019-01-20T09:32:42.054Z,43.50
2019-01-20T09:35:28.469Z,42.00
2019-01-20T09:41:12.899Z,42.20
2019-01-20T09:43:57.757Z,40.80
2019-01-20T09:46:47.825Z,42.80
2019-01-20T09:55:28.542Z,42.10
2019-01-20T09:58:04.635Z,42.00
2019-01-20T10:00:52.843Z,40.70
2019-01-20T12:30:19.069Z,39.70
2019-01-20T12:33:05.952Z,38.20
2019-01-20T12:35:41.081Z,38.00
2019-01-20T12:38:24.343Z,37.40
2019-01-20T12:41:02.864Z,35.00
2019-01-20T12:43:41.807Z,38.30
2019-01-20T12:46:21.164Z,36.10
2019-01-20T12:54:57.485Z,35.00
2019-01-20T12:57:36.998Z,33.00
2019-01-20T13:42:58.572Z,30.80
2019-01-20T14:35:53.332Z,28.80
2019-01-20T14:38:36.769Z,28.40
2019-01-20T14:41:20.116Z,27.30
2019-01-20T14:47:02.851Z,28.40
2019-01-20T14:49:41.933Z,27.30
2019-01-20T14:52:16.678Z,26.90
2019-01-20T14:54:53.739Z,27.60
2019-01-20T14:57:28.979Z,28.80
2019-01-20T15:27:31.339Z,30.60
2019-01-20T16:28:08.477Z,41.30
2019-01-20T16:33:57.056Z,40.40
2019-01-20T17:34:19.227Z,49.20
2019-01-20T17:36:56.243Z,49.30
2019-01-20T17:39:45.659Z,53.30
2019-01-20T17:51:21.800Z,51.80
2019-01-20T17:54:01.070Z,53.00
2019-01-20T17:59:50.280Z,56.70
2019-01-20T18:02:44.458Z,57.30
2019-01-20T18:15:18.214Z,58.70
2019-01-20T18:21:12.259Z,57.90
2019-01-20T18:26:59.666Z,57.00
2019-01-20T18:37:46.551Z,57.10
2019-01-20T18:40:27.323Z,57.30
2019-01-20T18:43:10.638Z,56.00
2019-01-20T18:45:49.798Z,56.00
2019-01-20T19:12:36.092Z,55.60
2019-01-20T19:15:23.304Z,56.50
2019-01-20T19:18:05.380Z,56.50
2019-01-20T19:20:51.404Z,56.60
2019-01-20T19:23:33.053Z,56.60
2019-01-20T19:26:16.965Z,55.40
2019-01-20T19:28:54.576Z,55.50
2019-01-20T19:31:38.453Z,56.00
2019-01-20T19:46:29.191Z,54.10
2019-01-20T19:52:23.379Z,54.50
2019-01-20T20:04:18.764Z,52.60
2019-01-20T20:10:16.115Z,54.70
2019-01-20T20:52:09.183Z,55.70
2019-01-20T21:31:29.380Z,57.40
